sensor_id;sensor_type;location;lat;lon;timestamp;temperature;humidity
21807;DHT22;11065;50.786;7.840;2023-01-31T00:02:26;8.60;53.60
21807;DHT22;11065;50.786;7.840;2023-01-31T00:04:54;8.60;53.60
21807;DHT22;11065;50.786;7.840;2023-01-31T00:07:22;8.60;53.60
21807;DHT22;11065;50.786;7.840;2023-01-31T00:09:51;8.60;53.60
21807;DHT22;11065;50.786;7.840;2023-01-31T00:12:18;8.60;53.70
21807;DHT22;11065;50.786;7.840;2023-01-31T00:14:47;8.60;53.60
21807;DHT22;11065;50.786;7.840;2023-01-31T00:17:14;8.60;53.70
21807;DHT22;11065;50.786;7.840;2023-01-31T00:19:44;8.60;53.70
21807;DHT22;11065;50.786;7.840;2023-01-31T00:22:12;8.60;53.70
21807;DHT22;11065;50.786;7.840;2023-01-31T00:24:40;8.60;53.80
21807;DHT22;11065;50.786;7.840;2023-01-31T00:27:08;8.60;53.80
21807;DHT22;11065;50.786;7.840;2023-01-31T00:29:36;8.60;53.80
21807;DHT22;11065;50.786;7.840;2023-01-31T00:32:04;8.60;53.80
21807;DHT22;11065;50.786;7.840;2023-01-31T00:34:32;8.60;53.80
21807;DHT22;11065;50.786;7.840;2023-01-31T00:37:02;8.60;53.80
21807;DHT22;11065;50.786;7.840;2023-01-31T00:39:31;8.60;53.90
21807;DHT22;11065;50.786;7.840;2023-01-31T00:42:00;8.50;53.80
21807;DHT22;11065;50.786;7.840;2023-01-31T00:44:28;8.50;53.80
21807;DHT22;11065;50.786;7.840;2023-01-31T00:46:56;8.50;53.80
21807;DHT22;11065;50.786;7.840;2023-01-31T00:49:25;8.50;53.80
21807;DHT22;11065;50.786;7.840;2023-01-31T00:51:53;8.50;53.90
21807;DHT22;11065;50.786;7.840;2023-01-31T00:54:22;8.50;53.90
21807;DHT22;11065;50.786;7.840;2023-01-31T00:56:50;8.50;53.90
21807;DHT22;11065;50.786;7.840;2023-01-31T00:59:19;8.50;53.90
21807;DHT22;11065;50.786;7.840;2023-01-31T01:01:47;8.50;53.90
21807;DHT22;11065;50.786;7.840;2023-01-31T01:04:15;8.50;53.90
21807;DHT22;11065;50.786;7.840;2023-01-31T01:06:43;8.50;53.90
21807;DHT22;11065;50.786;7.840;2023-01-31T01:09:13;8.40;53.90
21807;DHT22;11065;50.786;7.840;2023-01-31T01:11:43;8.40;54.10
21807;DHT22;11065;50.786;7.840;2023-01-31T01:14:11;8.40;54.00
21807;DHT22;11065;50.786;7.840;2023-01-31T01:16:39;8.40;54.00
21807;DHT22;11065;50.786;7.840;2023-01-31T01:19:14;8.40;53.90
21807;DHT22;11065;50.786;7.840;2023-01-31T01:21:42;8.30;53.80
21807;DHT22;11065;50.786;7.840;2023-01-31T01:24:14;8.30;53.70
21807;DHT22;11065;50.786;7.840;2023-01-31T01:26:44;8.30;53.80
21807;DHT22;11065;50.786;7.840;2023-01-31T01:29:13;8.20;53.80
21807;DHT22;11065;50.786;7.840;2023-01-31T01:31:42;8.20;53.90
21807;DHT22;11065;50.786;7.840;2023-01-31T01:34:12;8.30;54.00
21807;DHT22;11065;50.786;7.840;2023-01-31T01:36:41;8.20;54.00
21807;DHT22;11065;50.786;7.840;2023-01-31T01:39:14;8.20;54.00
21807;DHT22;11065;50.786;7.840;2023-01-31T01:41:45;8.20;54.10
21807;DHT22;11065;50.786;7.840;2023-01-31T01:44:44;8.20;54.10
21807;DHT22;11065;50.786;7.840;2023-01-31T01:47:20;8.20;54.30
21807;DHT22;11065;50.786;7.840;2023-01-31T01:49:51;8.20;54.30
21807;DHT22;11065;50.786;7.840;2023-01-31T01:52:22;8.10;54.20
21807;DHT22;11065;50.786;7.840;2023-01-31T01:54:54;8.10;54.20
21807;DHT22;11065;50.786;7.840;2023-01-31T01:57:27;8.10;54.30
21807;DHT22;11065;50.786;7.840;2023-01-31T02:00:04;8.10;54.40
21807;DHT22;11065;50.786;7.840;2023-01-31T02:02:41;8.10;54.50
21807;DHT22;11065;50.786;7.840;2023-01-31T02:05:12;8.10;54.70
21807;DHT22;11065;50.786;7.840;2023-01-31T02:07:43;8.10;54.60
21807;DHT22;11065;50.786;7.840;2023-01-31T02:10:15;8.10;54.60
21807;DHT22;11065;50.786;7.840;2023-01-31T02:12:45;8.10;54.70
21807;DHT22;11065;50.786;7.840;2023-01-31T02:15:13;8.10;54.50
21807;DHT22;11065;50.786;7.840;2023-01-31T02:17:42;8.10;54.50
21807;DHT22;11065;50.786;7.840;2023-01-31T02:20:23;8.10;54.40
21807;DHT22;11065;50.786;7.840;2023-01-31T02:23:09;8.00;54.40
21807;DHT22;11065;50.786;7.840;2023-01-31T02:25:53;8.00;54.40
21807;DHT22;11065;50.786;7.840;2023-01-31T02:28:53;8.00;54.50
21807;DHT22;11065;50.786;7.840;2023-01-31T02:31:58;7.90;54.50
21807;DHT22;11065;50.786;7.840;2023-01-31T02:34:36;7.90;54.60
21807;DHT22;11065;50.786;7.840;2023-01-31T02:37:15;7.90;54.60
21807;DHT22;11065;50.786;7.840;2023-01-31T02:39:52;7.90;54.60
21807;DHT22;11065;50.786;7.840;2023-01-31T02:42:31;7.80;54.70
21807;DHT22;11065;50.786;7.840;2023-01-31T02:45:07;7.80;55.20
21807;DHT22;11065;50.786;7.840;2023-01-31T02:47:53;7.80;54.70
21807;DHT22;11065;50.786;7.840;2023-01-31T02:50:30;7.90;54.90
21807;DHT22;11065;50.786;7.840;2023-01-31T02:53:04;7.80;54.80
21807;DHT22;11065;50.786;7.840;2023-01-31T02:55:37;7.80;54.80
21807;DHT22;11065;50.786;7.840;2023-01-31T02:58:27;7.90;54.90
21807;DHT22;11065;50.786;7.840;2023-01-31T03:01:00;7.90;54.80
21807;DHT22;11065;50.786;7.840;2023-01-31T03:03:33;7.90;54.80
21807;DHT22;11065;50.786;7.840;2023-01-31T03:09:05;7.90;54.90
21807;DHT22;11065;50.786;7.840;2023-01-31T03:11:39;7.90;54.80
21807;DHT22;11065;50.786;7.840;2023-01-31T03:14:25;7.90;54.80
21807;DHT22;11065;50.786;7.840;2023-01-31T03:17:00;7.90;54.90
21807;DHT22;11065;50.786;7.840;2023-01-31T03:19:57;7.90;54.80
21807;DHT22;11065;50.786;7.840;2023-01-31T03:22:33;7.90;54.80
21807;DHT22;11065;50.786;7.840;2023-01-31T03:25:03;7.80;54.70
21807;DHT22;11065;50.786;7.840;2023-01-31T03:27:34;7.80;54.70
21807;DHT22;11065;50.786;7.840;2023-01-31T03:30:11;7.80;54.70
21807;DHT22;11065;50.786;7.840;2023-01-31T03:32:43;7.80;54.80
21807;DHT22;11065;50.786;7.840;2023-01-31T03:35:12;7.90;54.80
21807;DHT22;11065;50.786;7.840;2023-01-31T03:37:48;7.90;54.90
21807;DHT22;11065;50.786;7.840;2023-01-31T03:40:23;7.80;55.00
21807;DHT22;11065;50.786;7.840;2023-01-31T03:42:56;7.80;54.80
21807;DHT22;11065;50.786;7.840;2023-01-31T03:45:30;7.90;54.90
21807;DHT22;11065;50.786;7.840;2023-01-31T03:48:02;7.80;54.80
21807;DHT22;11065;50.786;7.840;2023-01-31T03:50:39;7.80;55.00
21807;DHT22;11065;50.786;7.840;2023-01-31T03:53:14;7.80;54.80
21807;DHT22;11065;50.786;7.840;2023-01-31T03:55:47;7.80;54.80
21807;DHT22;11065;50.786;7.840;2023-01-31T03:58:20;7.80;54.90
21807;DHT22;11065;50.786;7.840;2023-01-31T04:00:51;7.80;54.90
21807;DHT22;11065;50.786;7.840;2023-01-31T04:03:23;7.80;54.80
21807;DHT22;11065;50.786;7.840;2023-01-31T04:05:55;7.80;54.70
21807;DHT22;11065;50.786;7.840;2023-01-31T04:08:26;7.80;54.70
21807;DHT22;11065;50.786;7.840;2023-01-31T04:10:59;7.70;54.60
21807;DHT22;11065;50.786;7.840;2023-01-31T04:13:30;7.70;54.60
21807;DHT22;11065;50.786;7.840;2023-01-31T04:15:58;7.70;54.70
21807;DHT22;11065;50.786;7.840;2023-01-31T04:18:26;7.60;54.60
21807;DHT22;11065;50.786;7.840;2023-01-31T04:20:54;7.60;54.70
21807;DHT22;11065;50.786;7.840;2023-01-31T04:23:22;7.60;54.70
21807;DHT22;11065;50.786;7.840;2023-01-31T04:25:53;7.50;54.70
21807;DHT22;11065;50.786;7.840;2023-01-31T04:28:21;7.60;54.80
21807;DHT22;11065;50.786;7.840;2023-01-31T04:30:51;7.60;54.90
21807;DHT22;11065;50.786;7.840;2023-01-31T04:33:20;7.50;54.90
21807;DHT22;11065;50.786;7.840;2023-01-31T04:35:50;7.50;54.90
21807;DHT22;11065;50.786;7.840;2023-01-31T04:38:18;7.50;55.00
21807;DHT22;11065;50.786;7.840;2023-01-31T04:40:46;7.50;55.00
21807;DHT22;11065;50.786;7.840;2023-01-31T04:43:16;7.50;54.90
21807;DHT22;11065;50.786;7.840;2023-01-31T04:45:44;7.50;55.00
21807;DHT22;11065;50.786;7.840;2023-01-31T04:48:12;7.40;55.00
21807;DHT22;11065;50.786;7.840;2023-01-31T04:50:40;7.40;55.00
21807;DHT22;11065;50.786;7.840;2023-01-31T04:53:09;7.40;55.00
21807;DHT22;11065;50.786;7.840;2023-01-31T04:55:37;7.40;55.10
21807;DHT22;11065;50.786;7.840;2023-01-31T04:58:05;7.40;55.10
21807;DHT22;11065;50.786;7.840;2023-01-31T05:00:34;7.40;55.10
21807;DHT22;11065;50.786;7.840;2023-01-31T05:03:03;7.40;55.20
21807;DHT22;11065;50.786;7.840;2023-01-31T05:05:32;7.30;55.00
21807;DHT22;11065;50.786;7.840;2023-01-31T05:08:02;7.30;55.00
21807;DHT22;11065;50.786;7.840;2023-01-31T05:10:32;7.40;55.00
21807;DHT22;11065;50.786;7.840;2023-01-31T05:13:01;7.40;55.10
21807;DHT22;11065;50.786;7.840;2023-01-31T05:15:29;7.40;55.10
21807;DHT22;11065;50.786;7.840;2023-01-31T05:17:59;7.40;55.00
21807;DHT22;11065;50.786;7.840;2023-01-31T05:20:31;7.40;54.90
21807;DHT22;11065;50.786;7.840;2023-01-31T05:23:02;7.40;55.00
21807;DHT22;11065;50.786;7.840;2023-01-31T05:25:30;7.40;54.90
21807;DHT22;11065;50.786;7.840;2023-01-31T05:27:58;7.40;54.90
21807;DHT22;11065;50.786;7.840;2023-01-31T05:30:27;7.40;54.90
21807;DHT22;11065;50.786;7.840;2023-01-31T05:32:55;7.40;54.80
21807;DHT22;11065;50.786;7.840;2023-01-31T05:35:25;7.40;54.70
21807;DHT22;11065;50.786;7.840;2023-01-31T05:37:53;7.30;54.70
21807;DHT22;11065;50.786;7.840;2023-01-31T05:40:21;7.30;54.70
21807;DHT22;11065;50.786;7.840;2023-01-31T05:42:53;7.30;54.70
21807;DHT22;11065;50.786;7.840;2023-01-31T05:45:21;7.30;54.70
21807;DHT22;11065;50.786;7.840;2023-01-31T05:47:50;7.30;54.80
21807;DHT22;11065;50.786;7.840;2023-01-31T05:50:19;7.30;54.80
21807;DHT22;11065;50.786;7.840;2023-01-31T05:52:52;7.30;54.80
21807;DHT22;11065;50.786;7.840;2023-01-31T05:55:21;7.30;54.80
21807;DHT22;11065;50.786;7.840;2023-01-31T05:57:50;7.30;54.70
21807;DHT22;11065;50.786;7.840;2023-01-31T06:00:19;7.30;54.70
21807;DHT22;11065;50.786;7.840;2023-01-31T06:02:47;7.30;54.70
21807;DHT22;11065;50.786;7.840;2023-01-31T06:05:16;7.30;54.70
21807;DHT22;11065;50.786;7.840;2023-01-31T06:07:45;7.40;54.70
21807;DHT22;11065;50.786;7.840;2023-01-31T06:10:15;7.40;54.70
21807;DHT22;11065;50.786;7.840;2023-01-31T06:12:46;7.30;54.60
21807;DHT22;11065;50.786;7.840;2023-01-31T06:15:15;7.40;54.80
21807;DHT22;11065;50.786;7.840;2023-01-31T06:17:43;7.30;54.60
21807;DHT22;11065;50.786;7.840;2023-01-31T06:20:11;7.30;54.60
21807;DHT22;11065;50.786;7.840;2023-01-31T06:22:40;7.30;54.60
21807;DHT22;11065;50.786;7.840;2023-01-31T06:25:08;7.30;54.70
21807;DHT22;11065;50.786;7.840;2023-01-31T06:27:38;7.30;54.70
21807;DHT22;11065;50.786;7.840;2023-01-31T06:30:07;7.30;54.70
21807;DHT22;11065;50.786;7.840;2023-01-31T06:32:36;7.40;54.70
21807;DHT22;11065;50.786;7.840;2023-01-31T06:35:05;7.30;54.60
21807;DHT22;11065;50.786;7.840;2023-01-31T06:37:33;7.40;54.70
21807;DHT22;11065;50.786;7.840;2023-01-31T06:40:01;7.30;54.70
21807;DHT22;11065;50.786;7.840;2023-01-31T06:42:29;7.30;54.80
21807;DHT22;11065;50.786;7.840;2023-01-31T06:44:58;7.30;54.80
21807;DHT22;11065;50.786;7.840;2023-01-31T06:47:26;7.30;55.10
21807;DHT22;11065;50.786;7.840;2023-01-31T06:49:54;7.30;54.90
21807;DHT22;11065;50.786;7.840;2023-01-31T06:52:22;7.30;54.90
21807;DHT22;11065;50.786;7.840;2023-01-31T06:54:50;7.40;54.90
21807;DHT22;11065;50.786;7.840;2023-01-31T06:57:18;7.40;54.80
21807;DHT22;11065;50.786;7.840;2023-01-31T06:59:46;7.40;54.80
21807;DHT22;11065;50.786;7.840;2023-01-31T07:02:15;7.40;54.70
21807;DHT22;11065;50.786;7.840;2023-01-31T07:04:44;7.40;54.70
21807;DHT22;11065;50.786;7.840;2023-01-31T07:07:12;7.40;54.70
21807;DHT22;11065;50.786;7.840;2023-01-31T07:09:40;7.40;54.70
21807;DHT22;11065;50.786;7.840;2023-01-31T07:12:08;7.40;54.70
21807;DHT22;11065;50.786;7.840;2023-01-31T07:14:36;7.40;54.70
21807;DHT22;11065;50.786;7.840;2023-01-31T07:17:05;7.50;54.70
21807;DHT22;11065;50.786;7.840;2023-01-31T07:19:34;7.40;54.60
21807;DHT22;11065;50.786;7.840;2023-01-31T07:22:02;7.40;54.60
21807;DHT22;11065;50.786;7.840;2023-01-31T07:24:30;7.50;54.60
21807;DHT22;11065;50.786;7.840;2023-01-31T07:26:59;7.50;54.60
21807;DHT22;11065;50.786;7.840;2023-01-31T07:29:27;7.50;54.60
21807;DHT22;11065;50.786;7.840;2023-01-31T07:31:55;7.50;54.60
21807;DHT22;11065;50.786;7.840;2023-01-31T07:34:24;7.50;54.50
21807;DHT22;11065;50.786;7.840;2023-01-31T07:36:53;7.50;54.50
21807;DHT22;11065;50.786;7.840;2023-01-31T07:39:21;7.50;54.50
21807;DHT22;11065;50.786;7.840;2023-01-31T07:41:50;7.50;54.50
21807;DHT22;11065;50.786;7.840;2023-01-31T07:44:20;7.50;54.50
21807;DHT22;11065;50.786;7.840;2023-01-31T07:46:48;7.50;54.60
21807;DHT22;11065;50.786;7.840;2023-01-31T07:49:16;7.50;54.80
21807;DHT22;11065;50.786;7.840;2023-01-31T07:51:44;7.50;54.80
21807;DHT22;11065;50.786;7.840;2023-01-31T07:54:15;7.60;54.60
21807;DHT22;11065;50.786;7.840;2023-01-31T07:56:43;7.60;54.50
21807;DHT22;11065;50.786;7.840;2023-01-31T07:59:11;7.60;54.50
21807;DHT22;11065;50.786;7.840;2023-01-31T08:01:39;7.60;54.50
21807;DHT22;11065;50.786;7.840;2023-01-31T08:04:25;7.60;54.50
21807;DHT22;11065;50.786;7.840;2023-01-31T08:06:54;7.60;54.40
21807;DHT22;11065;50.786;7.840;2023-01-31T08:09:23;7.60;54.20
21807;DHT22;11065;50.786;7.840;2023-01-31T08:11:51;7.60;54.30
21807;DHT22;11065;50.786;7.840;2023-01-31T08:14:19;7.60;54.30
21807;DHT22;11065;50.786;7.840;2023-01-31T08:16:51;7.60;54.30
21807;DHT22;11065;50.786;7.840;2023-01-31T08:19:19;7.70;54.40
21807;DHT22;11065;50.786;7.840;2023-01-31T08:21:47;7.70;54.30
21807;DHT22;11065;50.786;7.840;2023-01-31T08:24:15;7.70;54.30
21807;DHT22;11065;50.786;7.840;2023-01-31T08:26:45;7.70;54.10
21807;DHT22;11065;50.786;7.840;2023-01-31T08:29:13;7.70;54.10
21807;DHT22;11065;50.786;7.840;2023-01-31T08:31:41;7.70;54.10
21807;DHT22;11065;50.786;7.840;2023-01-31T08:34:10;7.70;54.10
21807;DHT22;11065;50.786;7.840;2023-01-31T08:36:38;7.70;54.20
21807;DHT22;11065;50.786;7.840;2023-01-31T08:39:06;7.70;54.00
21807;DHT22;11065;50.786;7.840;2023-01-31T08:41:36;7.70;54.10
21807;DHT22;11065;50.786;7.840;2023-01-31T08:44:06;7.70;54.10
21807;DHT22;11065;50.786;7.840;2023-01-31T08:46:35;7.70;54.00
21807;DHT22;11065;50.786;7.840;2023-01-31T08:49:05;7.70;54.10
21807;DHT22;11065;50.786;7.840;2023-01-31T08:51:33;7.70;54.10
21807;DHT22;11065;50.786;7.840;2023-01-31T08:54:02;7.80;54.00
21807;DHT22;11065;50.786;7.840;2023-01-31T08:56:30;7.70;53.90
21807;DHT22;11065;50.786;7.840;2023-01-31T08:58:58;7.80;54.00
21807;DHT22;11065;50.786;7.840;2023-01-31T09:01:27;7.80;54.00
21807;DHT22;11065;50.786;7.840;2023-01-31T09:03:56;7.80;53.90
21807;DHT22;11065;50.786;7.840;2023-01-31T09:06:25;7.80;54.00
21807;DHT22;11065;50.786;7.840;2023-01-31T09:08:55;7.80;53.90
21807;DHT22;11065;50.786;7.840;2023-01-31T09:11:26;7.80;54.00
21807;DHT22;11065;50.786;7.840;2023-01-31T09:13:54;7.80;54.00
21807;DHT22;11065;50.786;7.840;2023-01-31T09:16:22;7.90;54.00
21807;DHT22;11065;50.786;7.840;2023-01-31T09:18:52;7.80;54.00
21807;DHT22;11065;50.786;7.840;2023-01-31T09:21:22;7.90;54.00
21807;DHT22;11065;50.786;7.840;2023-01-31T09:23:54;7.90;54.00
21807;DHT22;11065;50.786;7.840;2023-01-31T09:26:22;7.90;54.00
21807;DHT22;11065;50.786;7.840;2023-01-31T09:28:51;7.90;53.90
21807;DHT22;11065;50.786;7.840;2023-01-31T09:31:19;8.00;54.10
21807;DHT22;11065;50.786;7.840;2023-01-31T09:33:48;7.90;54.10
21807;DHT22;11065;50.786;7.840;2023-01-31T09:36:20;8.00;54.10
21807;DHT22;11065;50.786;7.840;2023-01-31T09:38:52;8.00;54.10
21807;DHT22;11065;50.786;7.840;2023-01-31T09:41:25;8.10;54.20
21807;DHT22;11065;50.786;7.840;2023-01-31T09:43:57;8.10;54.20
21807;DHT22;11065;50.786;7.840;2023-01-31T09:46:31;8.10;54.00
21807;DHT22;11065;50.786;7.840;2023-01-31T09:49:01;8.10;54.00
21807;DHT22;11065;50.786;7.840;2023-01-31T09:51:33;8.10;53.90
21807;DHT22;11065;50.786;7.840;2023-01-31T09:54:07;8.20;53.80
21807;DHT22;11065;50.786;7.840;2023-01-31T09:56:47;8.20;53.80
21807;DHT22;11065;50.786;7.840;2023-01-31T09:59:21;8.10;53.80
21807;DHT22;11065;50.786;7.840;2023-01-31T10:01:54;8.20;53.80
21807;DHT22;11065;50.786;7.840;2023-01-31T10:04:47;8.20;53.90
21807;DHT22;11065;50.786;7.840;2023-01-31T10:07:26;8.20;53.90
21807;DHT22;11065;50.786;7.840;2023-01-31T10:10:01;8.40;54.00
21807;DHT22;11065;50.786;7.840;2023-01-31T10:12:33;8.30;54.00
21807;DHT22;11065;50.786;7.840;2023-01-31T10:15:09;8.30;53.90
21807;DHT22;11065;50.786;7.840;2023-01-31T10:17:42;8.30;53.90
21807;DHT22;11065;50.786;7.840;2023-01-31T10:20:18;8.30;53.90
21807;DHT22;11065;50.786;7.840;2023-01-31T10:22:53;8.40;54.00
21807;DHT22;11065;50.786;7.840;2023-01-31T10:25:26;8.40;53.80
21807;DHT22;11065;50.786;7.840;2023-01-31T10:27:59;8.40;53.90
21807;DHT22;11065;50.786;7.840;2023-01-31T10:30:42;8.40;53.80
21807;DHT22;11065;50.786;7.840;2023-01-31T10:33:19;8.40;54.00
21807;DHT22;11065;50.786;7.840;2023-01-31T10:35:51;8.40;53.90
21807;DHT22;11065;50.786;7.840;2023-01-31T10:38:26;8.40;53.90
21807;DHT22;11065;50.786;7.840;2023-01-31T10:41:01;8.40;53.90
21807;DHT22;11065;50.786;7.840;2023-01-31T10:43:37;8.50;54.00
21807;DHT22;11065;50.786;7.840;2023-01-31T10:46:09;8.50;54.00
21807;DHT22;11065;50.786;7.840;2023-01-31T10:48:38;8.50;54.10
21807;DHT22;11065;50.786;7.840;2023-01-31T10:51:20;8.60;54.20
21807;DHT22;11065;50.786;7.840;2023-01-31T10:54:11;8.70;54.20
21807;DHT22;11065;50.786;7.840;2023-01-31T10:56:42;8.60;54.00
21807;DHT22;11065;50.786;7.840;2023-01-31T10:59:22;8.70;54.00
21807;DHT22;11065;50.786;7.840;2023-01-31T11:01:51;8.60;54.00
21807;DHT22;11065;50.786;7.840;2023-01-31T11:04:25;8.70;53.80
21807;DHT22;11065;50.786;7.840;2023-01-31T11:06:56;8.70;53.90
21807;DHT22;11065;50.786;7.840;2023-01-31T11:09:30;8.70;53.90
21807;DHT22;11065;50.786;7.840;2023-01-31T11:12:00;8.70;54.00
21807;DHT22;11065;50.786;7.840;2023-01-31T11:14:28;8.80;54.00
21807;DHT22;11065;50.786;7.840;2023-01-31T11:16:59;8.70;53.90
21807;DHT22;11065;50.786;7.840;2023-01-31T11:19:32;8.70;54.00
21807;DHT22;11065;50.786;7.840;2023-01-31T11:22:01;8.70;54.00
21807;DHT22;11065;50.786;7.840;2023-01-31T11:24:32;8.70;54.10
21807;DHT22;11065;50.786;7.840;2023-01-31T11:27:04;8.70;54.10
21807;DHT22;11065;50.786;7.840;2023-01-31T11:29:35;8.70;54.20
21807;DHT22;11065;50.786;7.840;2023-01-31T11:32:13;8.70;54.30
21807;DHT22;11065;50.786;7.840;2023-01-31T11:34:55;8.70;54.30
21807;DHT22;11065;50.786;7.840;2023-01-31T11:37:23;8.70;54.50
21807;DHT22;11065;50.786;7.840;2023-01-31T11:39:57;8.60;54.20
21807;DHT22;11065;50.786;7.840;2023-01-31T11:42:26;8.60;54.30
21807;DHT22;11065;50.786;7.840;2023-01-31T11:44:59;8.60;54.40
21807;DHT22;11065;50.786;7.840;2023-01-31T11:47:33;8.60;54.60
21807;DHT22;11065;50.786;7.840;2023-01-31T11:50:06;8.60;54.60
21807;DHT22;11065;50.786;7.840;2023-01-31T11:52:34;8.50;54.70
21807;DHT22;11065;50.786;7.840;2023-01-31T11:55:07;8.50;54.80
21807;DHT22;11065;50.786;7.840;2023-01-31T11:57:37;8.60;55.20
21807;DHT22;11065;50.786;7.840;2023-01-31T12:00:19;8.60;55.20
21807;DHT22;11065;50.786;7.840;2023-01-31T12:02:53;8.60;55.20
21807;DHT22;11065;50.786;7.840;2023-01-31T12:05:33;8.60;55.30
21807;DHT22;11065;50.786;7.840;2023-01-31T12:08:02;8.60;55.30
21807;DHT22;11065;50.786;7.840;2023-01-31T12:10:35;8.60;55.10
21807;DHT22;11065;50.786;7.840;2023-01-31T12:13:14;8.60;55.20
21807;DHT22;11065;50.786;7.840;2023-01-31T12:15:49;8.60;55.10
21807;DHT22;11065;50.786;7.840;2023-01-31T12:18:24;8.50;55.10
21807;DHT22;11065;50.786;7.840;2023-01-31T12:21:02;8.50;55.20
21807;DHT22;11065;50.786;7.840;2023-01-31T12:23:38;8.50;55.20
21807;DHT22;11065;50.786;7.840;2023-01-31T12:26:13;8.50;55.10
21807;DHT22;11065;50.786;7.840;2023-01-31T12:28:54;8.50;55.10
21807;DHT22;11065;50.786;7.840;2023-01-31T12:31:39;8.50;55.30
21807;DHT22;11065;50.786;7.840;2023-01-31T12:34:22;8.50;55.60
21807;DHT22;11065;50.786;7.840;2023-01-31T12:37:03;8.50;55.60
21807;DHT22;11065;50.786;7.840;2023-01-31T12:39:45;8.60;55.50
21807;DHT22;11065;50.786;7.840;2023-01-31T12:42:28;8.60;55.50
21807;DHT22;11065;50.786;7.840;2023-01-31T12:45:12;8.50;55.30
21807;DHT22;11065;50.786;7.840;2023-01-31T12:48:01;8.50;55.20
21807;DHT22;11065;50.786;7.840;2023-01-31T12:50:33;8.50;55.30
21807;DHT22;11065;50.786;7.840;2023-01-31T12:53:29;8.50;55.30
21807;DHT22;11065;50.786;7.840;2023-01-31T12:56:22;8.50;55.50
21807;DHT22;11065;50.786;7.840;2023-01-31T12:58:57;8.60;55.60
21807;DHT22;11065;50.786;7.840;2023-01-31T13:01:45;8.60;55.50
21807;DHT22;11065;50.786;7.840;2023-01-31T13:04:28;8.60;55.40
21807;DHT22;11065;50.786;7.840;2023-01-31T13:07:01;8.60;55.40
21807;DHT22;11065;50.786;7.840;2023-01-31T13:09:32;8.60;55.30
21807;DHT22;11065;50.786;7.840;2023-01-31T13:12:05;8.50;55.20
21807;DHT22;11065;50.786;7.840;2023-01-31T13:14:39;8.60;55.40
21807;DHT22;11065;50.786;7.840;2023-01-31T13:17:10;8.50;55.20
21807;DHT22;11065;50.786;7.840;2023-01-31T13:19:43;8.50;55.20
21807;DHT22;11065;50.786;7.840;2023-01-31T13:22:19;8.50;55.20
21807;DHT22;11065;50.786;7.840;2023-01-31T13:24:53;8.40;55.20
21807;DHT22;11065;50.786;7.840;2023-01-31T13:27:26;8.40;55.20
21807;DHT22;11065;50.786;7.840;2023-01-31T13:30:00;8.30;55.30
21807;DHT22;11065;50.786;7.840;2023-01-31T13:32:33;8.30;55.30
21807;DHT22;11065;50.786;7.840;2023-01-31T13:35:08;8.30;55.50
21807;DHT22;11065;50.786;7.840;2023-01-31T13:37:38;8.30;55.70
21807;DHT22;11065;50.786;7.840;2023-01-31T13:40:16;8.20;55.60
21807;DHT22;11065;50.786;7.840;2023-01-31T13:42:46;8.30;55.60
21807;DHT22;11065;50.786;7.840;2023-01-31T13:45:21;8.20;55.50
21807;DHT22;11065;50.786;7.840;2023-01-31T13:47:52;8.20;55.70
21807;DHT22;11065;50.786;7.840;2023-01-31T13:50:31;8.20;55.80
21807;DHT22;11065;50.786;7.840;2023-01-31T13:53:02;8.20;55.80
21807;DHT22;11065;50.786;7.840;2023-01-31T13:55:35;8.20;55.70
21807;DHT22;11065;50.786;7.840;2023-01-31T13:58:05;8.20;55.70
21807;DHT22;11065;50.786;7.840;2023-01-31T14:00:39;8.20;56.20
21807;DHT22;11065;50.786;7.840;2023-01-31T14:03:09;8.20;55.80
21807;DHT22;11065;50.786;7.840;2023-01-31T14:05:56;8.20;55.80
21807;DHT22;11065;50.786;7.840;2023-01-31T14:08:30;8.20;56.00
21807;DHT22;11065;50.786;7.840;2023-01-31T14:11:00;8.30;55.90
21807;DHT22;11065;50.786;7.840;2023-01-31T14:13:40;8.30;55.90
21807;DHT22;11065;50.786;7.840;2023-01-31T14:16:39;8.20;56.00
21807;DHT22;11065;50.786;7.840;2023-01-31T14:22:21;8.30;56.40
21807;DHT22;11065;50.786;7.840;2023-01-31T14:25:00;8.40;56.10
21807;DHT22;11065;50.786;7.840;2023-01-31T14:27:34;8.30;56.10
21807;DHT22;11065;50.786;7.840;2023-01-31T14:30:10;8.30;56.60
21807;DHT22;11065;50.786;7.840;2023-01-31T14:32:42;8.30;56.30
21807;DHT22;11065;50.786;7.840;2023-01-31T14:35:34;8.30;56.50
21807;DHT22;11065;50.786;7.840;2023-01-31T14:38:14;8.30;56.50
21807;DHT22;11065;50.786;7.840;2023-01-31T14:40:54;8.40;56.30
21807;DHT22;11065;50.786;7.840;2023-01-31T14:43:34;8.30;56.40
21807;DHT22;11065;50.786;7.840;2023-01-31T14:46:31;8.40;56.40
21807;DHT22;11065;50.786;7.840;2023-01-31T14:49:25;8.40;56.60
21807;DHT22;11065;50.786;7.840;2023-01-31T14:57:56;8.50;56.90
21807;DHT22;11065;50.786;7.840;2023-01-31T15:00:28;8.50;56.70
21807;DHT22;11065;50.786;7.840;2023-01-31T15:03:02;8.60;56.70
21807;DHT22;11065;50.786;7.840;2023-01-31T15:05:45;8.50;56.80
21807;DHT22;11065;50.786;7.840;2023-01-31T15:08:36;8.50;57.00
21807;DHT22;11065;50.786;7.840;2023-01-31T15:11:06;8.60;57.70
21807;DHT22;11065;50.786;7.840;2023-01-31T15:13:46;8.60;57.00
21807;DHT22;11065;50.786;7.840;2023-01-31T15:16:21;8.60;57.10
21807;DHT22;11065;50.786;7.840;2023-01-31T15:18:58;8.60;57.00
21807;DHT22;11065;50.786;7.840;2023-01-31T15:21:31;8.60;57.20
21807;DHT22;11065;50.786;7.840;2023-01-31T15:23:59;8.60;57.10
21807;DHT22;11065;50.786;7.840;2023-01-31T15:26:30;8.60;57.00
21807;DHT22;11065;50.786;7.840;2023-01-31T15:29:02;8.60;57.60
21807;DHT22;11065;50.786;7.840;2023-01-31T15:31:35;8.60;57.30
21807;DHT22;11065;50.786;7.840;2023-01-31T15:34:13;8.60;57.30
21807;DHT22;11065;50.786;7.840;2023-01-31T15:36:48;8.60;57.80
21807;DHT22;11065;50.786;7.840;2023-01-31T15:39:22;8.50;57.40
21807;DHT22;11065;50.786;7.840;2023-01-31T15:41:53;8.60;58.20
21807;DHT22;11065;50.786;7.840;2023-01-31T15:44:24;8.60;58.00
21807;DHT22;11065;50.786;7.840;2023-01-31T15:46:53;8.60;57.90
21807;DHT22;11065;50.786;7.840;2023-01-31T15:49:26;8.50;57.70
21807;DHT22;11065;50.786;7.840;2023-01-31T15:52:13;8.50;57.80
21807;DHT22;11065;50.786;7.840;2023-01-31T15:54:53;8.50;58.50
21807;DHT22;11065;50.786;7.840;2023-01-31T15:57:25;8.50;58.00
21807;DHT22;11065;50.786;7.840;2023-01-31T15:59:56;8.50;57.80
21807;DHT22;11065;50.786;7.840;2023-01-31T16:02:28;8.50;58.30
21807;DHT22;11065;50.786;7.840;2023-01-31T16:04:57;8.60;58.60
21807;DHT22;11065;50.786;7.840;2023-01-31T16:07:28;8.60;58.30
21807;DHT22;11065;50.786;7.840;2023-01-31T16:09:58;8.60;58.30
21807;DHT22;11065;50.786;7.840;2023-01-31T16:12:29;8.60;58.70
21807;DHT22;11065;50.786;7.840;2023-01-31T16:15:03;8.60;58.40
21807;DHT22;11065;50.786;7.840;2023-01-31T16:17:32;8.60;58.40
21807;DHT22;11065;50.786;7.840;2023-01-31T16:20:00;8.60;58.80
21807;DHT22;11065;50.786;7.840;2023-01-31T16:22:30;8.60;58.80
21807;DHT22;11065;50.786;7.840;2023-01-31T16:25:00;8.60;58.60
21807;DHT22;11065;50.786;7.840;2023-01-31T16:27:30;8.70;58.40
21807;DHT22;11065;50.786;7.840;2023-01-31T16:29:59;8.70;58.50
21807;DHT22;11065;50.786;7.840;2023-01-31T16:32:30;8.70;58.60